Time;durP1;ratioP1;P1;durP2;ratioP2;P2;SDS_P1;SDS_P2;PMS_P1;PMS_P2;Temp;Humidity;BMP_temperature;BMP_pressure;BME280_temperature;BME280_humidity;BME280_pressure;Samples;Min_cycle;Max_cycle;Signal;HPM_P1;HPM_P2
2022/10/08 00:01:19;;;;;;;9.32;5.00;;;;;;;16.45;55.26;100204.16;4489639;31;34668;-65
2022/10/08 00:03:50;;;;;;;8.02;4.85;;;;;;;16.40;55.52;100206.41;4493875;31;33629;-65
2022/10/08 00:06:23;;;;;;;11.12;4.22;;;;;;;16.39;55.85;100207.41;4488512;31;33095;-65
2022/10/08 00:08:53;;;;;;;7.15;3.75;;;;;;;16.43;55.60;100212.38;4491894;31;32597;-65
2022/10/08 00:11:23;;;;;;;7.43;4.35;;;;;;;16.45;55.33;100210.41;4488895;31;33149;-66
2022/10/08 00:13:52;;;;;;;6.78;4.15;;;;;;;16.39;55.03;100205.56;4488918;31;33293;-65
2022/10/08 00:16:21;;;;;;;7.97;4.62;;;;;;;16.42;54.67;100204.44;4494673;31;34017;-66
2022/10/08 00:18:50;;;;;;;5.97;3.55;;;;;;;16.29;54.70;100202.00;4489994;31;33662;-65
2022/10/08 00:21:19;;;;;;;8.25;4.70;;;;;;;16.28;54.89;100200.31;4486532;31;33161;-65
2022/10/08 00:23:48;;;;;;;8.60;4.25;;;;;;;16.26;54.99;100197.72;4493692;31;34059;-65
2022/10/08 00:26:17;;;;;;;4.60;3.92;;;;;;;16.24;55.22;100204.25;4497542;31;33973;-65
2022/10/08 00:28:46;;;;;;;9.32;3.80;;;;;;;16.25;54.80;100195.19;4489906;31;33709;-65
2022/10/08 00:31:18;;;;;;;15.93;4.20;;;;;;;16.13;55.14;100190.91;4495828;31;32170;-64
2022/10/08 00:33:54;;;;;;;9.40;6.03;;;;;;;16.13;55.10;100185.50;4499768;31;32601;-64
2022/10/08 00:36:22;;;;;;;;;;;;;;;16.16;54.91;100179.81;4492498;31;34077;-64
2022/10/08 00:38:55;;;;;;;7.65;4.43;;;;;;;16.16;55.03;100183.37;4496572;31;32757;-64
2022/10/08 00:41:25;;;;;;;7.50;5.80;;;;;;;16.15;55.13;100183.53;4499820;31;31998;-65
2022/10/08 00:43:59;;;;;;;5.70;3.90;;;;;;;16.09;55.43;100182.22;4498188;31;34976;-65
2022/10/08 00:46:30;;;;;;;5.60;4.30;;;;;;;16.09;55.51;100168.72;4495247;31;35160;-65
2022/10/08 00:49:17;;;;;;;9.00;4.22;;;;;;;16.15;55.29;100164.62;4495943;31;32183;-65
2022/10/08 00:51:51;;;;;;;5.50;4.20;;;;;;;16.15;55.17;100164.62;4493835;31;33474;-65
2022/10/08 00:54:20;;;;;;;6.72;4.68;;;;;;;16.16;55.21;100161.75;4494197;31;35059;-65
2022/10/08 00:56:50;;;;;;;7.22;4.78;;;;;;;16.16;55.45;100159.06;4486005;31;34908;-65
2022/10/08 00:59:19;;;;;;;7.53;5.30;;;;;;;16.19;55.35;100157.94;4499371;31;33933;-64
2022/10/08 01:01:47;;;;;;;4.87;3.67;;;;;;;16.13;55.22;100155.78;4485262;31;33344;-65
2022/10/08 01:04:15;;;;;;;7.53;5.10;;;;;;;16.12;55.43;100156.81;4498586;31;34516;-64
2022/10/08 01:07:05;;;;;;;6.12;4.93;;;;;;;16.24;54.83;100164.62;4497404;31;33729;-64
2022/10/08 01:09:47;;;;;;;10.57;5.65;;;;;;;16.26;54.68;100162.63;4492322;31;33129;-64
2022/10/08 01:12:24;;;;;;;8.82;5.35;;;;;;;16.24;54.52;100159.22;4493203;31;33492;-65
2022/10/08 01:15:00;;;;;;;4.95;3.33;;;;;;;16.22;54.64;100158.50;4499148;31;33963;-65
2022/10/08 01:17:50;;;;;;;6.55;4.35;;;;;;;15.98;55.10;100161.59;4496161;31;35018;-65
2022/10/08 01:20:40;;;;;;;6.12;4.12;;;;;;;16.12;54.83;100148.69;4487521;31;34896;-65
2022/10/08 01:23:38;;;;;;;5.55;4.45;;;;;;;16.13;54.45;100147.69;4482238;31;33191;-65
2022/10/08 01:26:34;;;;;;;5.60;3.42;;;;;;;16.11;54.45;100149.66;4485785;31;35050;-65
2022/10/08 01:29:08;;;;;;;5.03;2.72;;;;;;;16.01;54.41;100144.25;4483667;32;32561;-65
2022/10/08 01:31:56;;;;;;;4.47;3.47;;;;;;;15.95;54.09;100144.81;4489757;31;34877;-65
2022/10/08 01:34:35;;;;;;;6.32;4.70;;;;;;;15.88;54.10;100141.81;4487023;31;33441;-65
2022/10/08 01:37:05;;;;;;;7.45;4.53;;;;;;;15.90;53.95;100136.31;4491579;31;32384;-65
2022/10/08 01:39:35;;;;;;;7.00;5.07;;;;;;;15.68;54.77;100132.84;4495774;31;33992;-65
2022/10/08 01:42:04;;;;;;;8.52;4.45;;;;;;;15.83;54.73;100136.00;4494035;31;34507;-65
2022/10/08 01:44:36;;;;;;;5.12;3.90;;;;;;;15.83;54.48;100134.16;4486860;31;33316;-66
2022/10/08 01:47:08;;;;;;;9.57;5.20;;;;;;;15.84;54.47;100127.75;4494263;31;33433;-66
2022/10/08 01:49:42;;;;;;;7.15;4.85;;;;;;;15.77;54.25;100118.50;4491738;31;33894;-66
2022/10/08 01:52:15;;;;;;;5.50;3.45;;;;;;;15.73;53.85;100119.78;4485185;31;32607;-66
2022/10/08 01:54:44;;;;;;;8.75;4.40;;;;;;;15.72;53.73;100111.81;4489334;31;33448;-66
2022/10/08 01:57:12;;;;;;;7.47;5.43;;;;;;;15.71;54.05;100110.97;4487775;31;33678;-66
2022/10/08 01:59:49;;;;;;;7.30;4.28;;;;;;;15.71;53.79;100119.06;4496857;31;34607;-66
2022/10/08 02:02:20;;;;;;;7.70;4.50;;;;;;;15.66;53.83;100112.34;4500855;31;33779;-66
2022/10/08 02:04:50;;;;;;;4.95;3.33;;;;;;;15.68;53.81;100113.94;4498231;31;33366;-66
2022/10/08 02:07:20;;;;;;;4.75;3.45;;;;;;;15.56;54.07;100121.25;4496454;31;32629;-66
2022/10/08 02:09:53;;;;;;;11.88;5.37;;;;;;;15.54;53.89;100115.16;4497585;31;33228;-66
2022/10/08 02:12:23;;;;;;;7.82;3.78;;;;;;;15.48;54.56;100113.00;4489820;31;32700;-66
2022/10/08 02:14:53;;;;;;;5.18;3.28;;;;;;;15.45;54.52;100115.13;4488633;31;34260;-65
2022/10/08 02:17:24;;;;;;;6.78;3.78;;;;;;;15.49;54.58;100106.62;4494243;31;33664;-65
2022/10/08 02:20:14;;;;;;;7.12;3.67;;;;;;;15.44;54.35;100111.59;4493024;31;35295;-65
2022/10/08 02:22:51;;;;;;;6.55;4.35;;;;;;;15.44;54.43;100105.31;4496838;31;33705;-65
2022/10/08 02:25:23;;;;;;;;;;;;;;;15.46;54.11;100098.78;4497118;31;33186;-65
2022/10/08 02:27:55;;;;;;;4.68;3.08;;;;;;;15.41;54.12;100103.78;4487849;31;34333;-65
2022/10/08 02:30:23;;;;;;;12.52;5.82;;;;;;;15.39;54.13;100100.34;4482363;32;35407;-65
2022/10/08 02:32:58;;;;;;;4.90;4.05;;;;;;;15.33;54.48;100100.88;4487557;31;35161;-65
2022/10/08 02:35:34;;;;;;;7.75;4.78;;;;;;;15.26;55.05;100102.44;4490139;31;32451;-65
2022/10/08 02:38:09;;;;;;;8.40;4.30;;;;;;;15.30;54.80;100101.16;4486729;31;33594;-65
2022/10/08 02:40:40;;;;;;;5.18;3.50;;;;;;;15.27;54.88;100096.03;4491069;31;34973;-64
2022/10/08 02:43:11;;;;;;;7.72;3.12;;;;;;;15.18;54.58;100095.00;4492602;31;33928;-64
2022/10/08 02:45:45;;;;;;;7.07;4.43;;;;;;;15.25;54.49;100090.78;4491609;31;34262;-65
2022/10/08 02:48:18;;;;;;;8.82;4.37;;;;;;;15.24;54.32;100096.31;4482749;31;34032;-64
2022/10/08 02:50:48;;;;;;;5.75;3.97;;;;;;;15.25;54.40;100095.31;4491644;31;33820;-64
2022/10/08 02:53:18;;;;;;;9.15;4.62;;;;;;;15.26;54.31;100094.34;4489277;31;33792;-65
2022/10/08 02:56:04;;;;;;;7.07;3.60;;;;;;;15.17;54.55;100096.00;4494276;31;33501;-65
2022/10/08 02:58:32;;;;;;;5.80;4.70;;;;;;;15.07;54.66;100095.09;4493142;31;35273;-64
2022/10/08 03:01:08;;;;;;;6.47;4.62;;;;;;;14.94;54.82;100094.47;4490550;31;35355;-65
2022/10/08 03:03:38;;;;;;;4.60;4.03;;;;;;;15.01;54.44;100096.50;4489413;31;33870;-64
2022/10/08 03:06:08;;;;;;;5.03;3.42;;;;;;;15.01;54.70;100093.78;4493175;31;36057;-64
2022/10/08 03:08:40;;;;;;;7.60;4.72;;;;;;;14.99;54.93;100100.31;4488280;31;33956;-64
2022/10/08 03:11:08;;;;;;;8.57;4.45;;;;;;;14.99;54.87;100101.19;4488384;31;35267;-65
2022/10/08 03:13:38;;;;;;;5.80;4.22;;;;;;;14.90;55.03;100093.91;4491699;31;35023;-66
2022/10/08 03:16:07;;;;;;;6.03;4.55;;;;;;;14.92;55.29;100094.59;4485593;31;33100;-66
2022/10/08 03:18:37;;;;;;;8.10;4.90;;;;;;;14.95;55.53;100098.88;4480297;31;32326;-64
2022/10/08 03:21:07;;;;;;;5.93;4.15;;;;;;;14.93;55.61;100096.31;4494208;31;33747;-65
2022/10/08 03:23:34;;;;;;;5.93;4.30;;;;;;;14.97;55.74;100095.06;4488777;31;35107;-65
2022/10/08 03:26:02;;;;;;;7.70;5.12;;;;;;;15.00;55.36;100102.88;4490696;31;32240;-65
2022/10/08 03:28:30;;;;;;;4.87;3.47;;;;;;;15.04;54.84;100098.06;4494298;31;33943;-65
2022/10/08 03:30:57;;;;;;;6.60;3.33;;;;;;;14.89;54.74;100097.56;4495652;31;35113;-65
2022/10/08 03:33:25;;;;;;;5.20;3.62;;;;;;;14.96;54.50;100098.75;4493388;31;33527;-65
2022/10/08 03:35:52;;;;;;;6.20;3.65;;;;;;;14.84;54.97;100089.88;4492721;31;34438;-65
2022/10/08 03:38:20;;;;;;;7.43;4.62;;;;;;;14.91;54.99;100096.44;4494395;31;33934;-65
2022/10/08 03:40:55;;;;;;;6.15;3.92;;;;;;;14.94;55.35;100098.03;4492993;31;33772;-64
2022/10/08 03:43:23;;;;;;;;;;;;;;;15.00;55.04;100108.28;4493236;31;33830;-65
2022/10/08 03:45:51;;;;;;;10.13;5.15;;;;;;;14.99;54.81;100087.72;4495303;31;34350;-65
2022/10/08 03:48:20;;;;;;;9.93;6.97;;;;;;;14.90;54.65;100096.59;4493376;31;34463;-64
2022/10/08 03:50:59;;;;;;;6.53;3.90;;;;;;;14.87;54.48;100091.47;4494062;31;35136;-65
2022/10/08 03:53:29;;;;;;;7.37;5.35;;;;;;;14.74;54.84;100096.22;4496125;31;33666;-65
2022/10/08 03:56:00;;;;;;;6.37;4.15;;;;;;;14.73;54.88;100086.41;4481444;31;34209;-64
2022/10/08 03:58:29;;;;;;;11.63;3.67;;;;;;;14.70;55.27;100089.38;4491299;31;33610;-64
2022/10/08 04:00:57;;;;;;;8.63;5.28;;;;;;;14.79;54.94;100097.50;4494531;31;35120;-65
2022/10/08 04:03:25;;;;;;;13.88;5.65;;;;;;;14.73;55.31;100092.66;4491973;31;35351;-64
2022/10/08 04:05:53;;;;;;;6.20;4.12;;;;;;;14.84;54.80;100089.88;4491959;31;33374;-65
2022/10/08 04:08:20;;;;;;;13.65;4.30;;;;;;;14.84;54.23;100084.50;4493009;31;35069;-64
2022/10/08 04:10:48;;;;;;;13.73;4.75;;;;;;;14.67;54.52;100077.91;4491947;31;33543;-65
2022/10/08 04:13:16;;;;;;;6.72;3.92;;;;;;;14.75;54.29;100079.91;4493366;31;33834;-64
2022/10/08 04:15:46;;;;;;;6.93;4.40;;;;;;;14.68;54.99;100076.91;4493733;31;33362;-64
2022/10/08 04:18:14;;;;;;;32.10;5.75;;;;;;;14.75;54.81;100081.75;4490869;31;33720;-64
2022/10/08 04:20:44;;;;;;;5.35;3.72;;;;;;;14.75;54.66;100076.38;4493279;31;33848;-63
2022/10/08 04:23:12;;;;;;;7.45;4.45;;;;;;;14.64;54.86;100067.37;4495160;31;35332;-64
2022/10/08 04:25:48;;;;;;;8.98;5.18;;;;;;;14.70;54.81;100073.19;4489034;31;33083;-64
2022/10/08 04:28:16;;;;;;;8.23;4.97;;;;;;;14.73;54.32;100072.94;4493763;31;34902;-64
2022/10/08 04:30:56;;;;;;;7.60;4.25;;;;;;;14.73;54.31;100075.63;4494281;31;32900;-65
2022/10/08 04:33:24;;;;;;;6.53;4.28;;;;;;;14.63;54.44;100076.44;4497553;31;34761;-65
2022/10/08 04:35:52;;;;;;;6.45;4.57;;;;;;;14.62;54.36;100077.41;4492408;31;33072;-65
2022/10/08 04:38:27;;;;;;;4.82;3.87;;;;;;;14.49;54.79;100076.75;4497285;31;32310;-65
2022/10/08 04:41:01;;;;;;;8.40;4.25;;;;;;;14.49;55.07;100070.50;4494540;31;33874;-65
2022/10/08 04:43:29;;;;;;;9.02;5.40;;;;;;;14.56;55.02;100074.41;4489765;31;120874;-64
2022/10/08 04:45:56;;;;;;;4.35;3.22;;;;;;;14.54;55.36;100079.94;4492164;31;33494;-64
2022/10/08 04:48:24;;;;;;;17.60;4.60;;;;;;;14.64;54.99;100072.78;4494427;31;34867;-64
2022/10/08 04:50:56;;;;;;;7.32;5.43;;;;;;;14.63;54.85;100071.03;4495434;31;35247;-64
2022/10/08 04:53:26;;;;;;;9.15;5.87;;;;;;;14.65;54.78;100071.78;4496071;31;33914;-64
2022/10/08 04:55:55;;;;;;;6.65;4.87;;;;;;;14.62;54.87;100072.03;4493279;31;32514;-64
2022/10/08 04:58:24;;;;;;;8.68;5.37;;;;;;;14.64;54.96;100074.63;4492795;31;33937;-64
2022/10/08 05:00:52;;;;;;;9.30;6.10;;;;;;;14.69;54.74;100077.75;4491456;31;32867;-64
2022/10/08 05:03:19;;;;;;;8.18;5.07;;;;;;;14.65;54.88;100076.31;4492686;31;34886;-64
2022/10/08 05:05:47;;;;;;;6.75;4.50;;;;;;;14.69;54.94;100077.75;4494002;31;33782;-64
2022/10/08 05:08:15;;;;;;;12.43;5.37;;;;;;;14.64;55.09;100080.00;4480597;31;32535;-63
2022/10/08 05:10:48;;;;;;;9.95;5.90;;;;;;;14.62;55.36;100071.19;4494284;31;33929;-64
2022/10/08 05:13:16;;;;;;;7.87;5.22;;;;;;;14.73;55.06;100076.47;4496796;31;33630;-64
2022/10/08 05:15:43;;;;;;;6.85;4.40;;;;;;;14.51;55.83;100080.19;4494815;31;33372;-65
2022/10/08 05:18:11;;;;;;;11.10;5.97;;;;;;;14.63;56.20;100078.28;4490341;31;33817;-64
2022/10/08 05:20:39;;;;;;;7.80;5.20;;;;;;;14.80;55.25;100080.38;4483610;31;33898;-64
2022/10/08 05:23:06;;;;;;;15.90;6.90;;;;;;;14.87;54.76;100089.62;4493785;31;32069;-64
2022/10/08 05:25:34;;;;;;;7.47;4.65;;;;;;;14.80;55.31;100079.50;4493965;31;34433;-64
2022/10/08 05:28:03;;;;;;;9.52;6.47;;;;;;;14.86;55.66;100082.53;4494146;31;34638;-65
2022/10/08 05:30:30;;;;;;;8.70;4.68;;;;;;;15.02;55.59;100076.62;4489695;31;33766;-65
2022/10/08 05:32:58;;;;;;;6.22;4.68;;;;;;;15.11;55.87;100083.06;4488625;31;33875;-62
2022/10/08 05:35:25;;;;;;;9.52;5.75;;;;;;;15.11;56.46;100085.75;4494689;31;33149;-63
2022/10/08 05:37:53;;;;;;;9.25;4.85;;;;;;;15.24;56.04;100085.53;4493615;31;34909;-62
2022/10/08 05:40:20;;;;;;;7.93;5.62;;;;;;;15.33;55.29;100088.25;4492074;31;34139;-64
2022/10/08 05:42:48;;;;;;;8.10;5.32;;;;;;;15.28;55.10;100086.94;4497971;31;35040;-63
2022/10/08 05:45:16;;;;;;;7.57;5.00;;;;;;;15.33;54.97;100087.41;4491886;31;32098;-62
2022/10/08 05:47:47;;;;;;;9.57;5.12;;;;;;;15.32;55.17;100093.78;4486087;31;35036;-62
2022/10/08 05:50:15;;;;;;;8.38;6.05;;;;;;;15.42;54.92;100091.97;4493052;31;33239;-62
2022/10/08 05:52:42;;;;;;;9.60;6.40;;;;;;;15.48;55.22;100104.06;4496366;31;32861;-62
2022/10/08 05:55:10;;;;;;;9.82;6.37;;;;;;;15.51;55.82;100099.25;4497637;31;34625;-62
2022/10/08 05:57:38;;;;;;;7.47;5.62;;;;;;;15.60;55.88;100098.44;4490253;31;33602;-63
2022/10/08 06:00:06;;;;;;;8.23;5.03;;;;;;;15.76;55.54;100102.44;4492579;31;33819;-62
2022/10/08 06:02:37;;;;;;;12.40;6.20;;;;;;;15.95;54.90;100113.28;4495083;31;33650;-62
2022/10/08 06:05:05;;;;;;;10.43;7.35;;;;;;;15.89;54.90;100110.28;4496311;31;33359;-61
2022/10/08 06:07:33;;;;;;;13.75;6.32;;;;;;;15.90;54.96;100103.91;4484309;31;33482;-63
2022/10/08 06:10:00;;;;;;;6.30;5.20;;;;;;;15.94;54.86;100110.72;4486087;31;32592;-62
2022/10/08 06:12:28;;;;;;;5.25;3.47;;;;;;;15.91;55.24;100109.16;4489879;31;33888;-63
2022/10/08 06:14:55;;;;;;;11.05;7.15;;;;;;;15.88;56.00;100109.44;4485377;31;36313;-63
2022/10/08 06:17:23;;;;;;;11.18;7.15;;;;;;;16.05;56.06;100118.69;4490279;31;34653;-63
2022/10/08 06:19:51;;;;;;;8.55;5.78;;;;;;;16.15;56.45;100124.97;4492485;31;32197;-63
2022/10/08 06:22:18;;;;;;;11.77;7.22;;;;;;;16.21;56.98;100116.31;4494657;31;34718;-63
2022/10/08 06:24:46;;;;;;;9.13;6.18;;;;;;;16.30;56.88;100120.81;4489653;31;32224;-63
2022/10/08 06:27:13;;;;;;;11.95;8.13;;;;;;;16.09;58.94;100124.69;4495108;31;33862;-63
2022/10/08 06:29:41;;;;;;;14.57;7.53;;;;;;;16.38;58.29;100120.12;4488436;31;32749;-62
2022/10/08 06:32:08;;;;;;;8.15;5.53;;;;;;;16.34;59.65;100125.94;4495599;31;34286;-62
2022/10/08 06:34:36;;;;;;;10.38;6.45;;;;;;;16.34;60.41;100124.13;4494709;31;32916;-63
2022/10/08 06:37:03;;;;;;;9.88;5.65;;;;;;;16.45;59.92;100120.41;4496212;31;33784;-63
2022/10/08 06:39:31;;;;;;;13.02;7.35;;;;;;;16.28;61.10;100122.84;4499244;31;33771;-62
2022/10/08 06:41:59;;;;;;;9.57;6.65;;;;;;;16.56;60.04;100120.25;4490498;31;33909;-62
2022/10/08 06:44:28;;;;;;;10.43;7.90;;;;;;;16.45;60.60;100129.34;4483981;31;34505;-63
2022/10/08 06:46:56;;;;;;;18.33;8.93;;;;;;;16.20;61.29;100128.06;4491717;31;34941;-63
2022/10/08 06:49:25;;;;;;;13.50;6.62;;;;;;;16.60;60.37;100131.63;4486820;31;35054;-61
2022/10/08 06:51:53;;;;;;;8.70;5.82;;;;;;;16.45;60.66;100132.06;4488844;31;33753;-62
2022/10/08 06:54:20;;;;;;;9.85;6.82;;;;;;;16.45;61.12;100134.75;4497301;31;32073;-63
2022/10/08 06:56:48;;;;;;;12.32;8.02;;;;;;;16.39;61.25;100138.03;4489018;31;33982;-63
2022/10/08 06:59:15;;;;;;;16.92;8.88;;;;;;;16.56;60.67;100139.16;4492280;31;33548;-62
2022/10/08 07:01:44;;;;;;;9.35;5.87;;;;;;;16.34;61.46;100143.03;4491053;31;32575;-63
2022/10/08 07:04:12;;;;;;;12.70;6.72;;;;;;;15.95;62.38;100145.66;4490816;31;33464;-62
2022/10/08 07:06:39;;;;;;;9.73;5.90;;;;;;;16.27;62.22;100145.41;4496493;31;32378;-62
2022/10/08 07:09:09;;;;;;;33.17;6.90;;;;;;;16.15;62.46;100141.16;4496695;31;33955;-62
2022/10/08 07:11:37;;;;;;;12.55;8.90;;;;;;;15.94;62.89;100135.03;4496595;31;34934;-62
2022/10/08 07:14:04;;;;;;;10.10;5.97;;;;;;;16.12;62.97;100141.44;4485930;31;33803;-63
2022/10/08 07:16:32;;;;;;;15.07;10.07;;;;;;;16.44;61.57;100138.47;4486791;31;35134;-62
2022/10/08 07:19:00;;;;;;;11.40;6.62;;;;;;;16.11;62.39;100138.87;4488245;31;35130;-63
2022/10/08 07:21:28;;;;;;;10.55;6.00;;;;;;;16.11;62.61;100137.03;4494681;31;32548;-62
2022/10/08 07:23:57;;;;;;;11.00;7.43;;;;;;;15.91;63.73;100133.44;4490871;31;33200;-62
2022/10/08 07:26:27;;;;;;;8.60;4.85;;;;;;;16.54;62.18;100131.22;4492864;31;33824;-62
2022/10/08 07:29:03;;;;;;;12.30;7.12;;;;;;;16.26;62.21;100140.16;4495468;31;32646;-63
2022/10/08 07:31:34;;;;;;;9.82;7.22;;;;;;;16.41;61.88;100136.06;4493394;31;32700;-62
2022/10/08 07:34:04;;;;;;;13.30;8.32;;;;;;;16.54;61.35;100136.59;4486412;31;33321;-62
2022/10/08 07:36:32;;;;;;;10.98;6.43;;;;;;;16.74;60.29;100131.19;4490149;31;34017;-63
2022/10/08 07:39:02;;;;;;;11.88;8.65;;;;;;;16.99;59.74;100137.84;4493106;31;33993;-62
2022/10/08 07:41:30;;;;;;;12.27;8.25;;;;;;;16.40;61.34;100128.91;4496923;31;33919;-63
2022/10/08 07:44:00;;;;;;;12.75;9.48;;;;;;;16.62;61.13;100127.78;4490106;31;34137;-64
2022/10/08 07:46:32;;;;;;;9.02;6.60;;;;;;;16.50;60.96;100129.78;4496122;31;34477;-63
2022/10/08 07:49:01;;;;;;;13.15;9.20;;;;;;;16.44;61.47;100124.97;4483868;31;33565;-62
2022/10/08 07:51:30;;;;;;;15.82;8.65;;;;;;;16.28;61.77;100130.09;4493759;31;33902;-64
2022/10/08 07:53:58;;;;;;;12.98;8.10;;;;;;;16.53;61.01;100126.81;4494243;31;31950;-62
2022/10/08 07:56:30;;;;;;;13.07;6.53;;;;;;;16.31;62.11;100124.41;4492040;31;35044;-63
2022/10/08 07:58:59;;;;;;;10.43;6.50;;;;;;;16.86;60.73;100123.81;4494663;31;33659;-63
2022/10/08 08:01:28;;;;;;;16.23;6.65;;;;;;;16.85;60.89;100125.63;4495307;31;33439;-63
2022/10/08 08:03:58;;;;;;;14.68;7.53;;;;;;;16.92;59.96;100126.78;4499315;31;33333;-63
2022/10/08 08:06:27;;;;;;;14.15;7.78;;;;;;;16.80;60.25;100124.38;4499566;31;34799;-63
2022/10/08 08:08:54;;;;;;;9.88;7.20;;;;;;;16.43;61.74;100125.94;4493018;31;32733;-64
2022/10/08 08:11:23;;;;;;;9.07;5.78;;;;;;;17.15;60.29;100127.25;4495875;31;33845;-61
2022/10/08 08:13:51;;;;;;;11.57;7.40;;;;;;;17.28;58.74;100123.38;4499578;31;33593;-64
2022/10/08 08:16:21;;;;;;;13.68;7.68;;;;;;;16.41;61.35;100121.69;4489407;31;33758;-63
2022/10/08 08:18:52;;;;;;;9.90;7.43;;;;;;;17.18;59.89;100126.13;4496133;31;34069;-63
2022/10/08 08:21:22;;;;;;;9.40;6.72;;;;;;;17.33;58.70;100118.34;4497397;31;32580;-63
2022/10/08 08:23:55;;;;;;;13.25;7.28;;;;;;;17.42;57.66;100115.59;4487995;31;31812;-63
2022/10/08 08:26:27;;;;;;;14.98;8.23;;;;;;;17.53;57.49;100121.81;4494842;31;34168;-62
2022/10/08 08:28:57;;;;;;;11.75;6.85;;;;;;;17.70;57.68;100126.44;4499495;31;33500;-63
2022/10/08 08:31:30;;;;;;;11.95;7.93;;;;;;;17.68;57.37;100126.56;4491230;31;32650;-62
2022/10/08 08:34:00;;;;;;;13.48;6.93;;;;;;;17.72;57.31;100121.75;4496096;31;34599;-63
2022/10/08 08:36:33;;;;;;;14.85;7.90;;;;;;;18.04;56.55;100115.88;4493410;31;34152;-63
2022/10/08 08:39:03;;;;;;;9.25;6.55;;;;;;;17.72;56.75;100118.16;4497480;31;34856;-65
2022/10/08 08:41:45;;;;;;;20.40;8.40;;;;;;;17.87;56.76;100114.81;4494276;31;33954;-63
2022/10/08 08:44:31;;;;;;;17.33;10.52;;;;;;;17.31;57.54;100117.69;4499649;31;33221;-64
2022/10/08 08:47:03;;;;;;;10.55;7.00;;;;;;;17.90;55.95;100114.50;4492494;31;34596;-65
2022/10/08 08:49:47;;;;;;;13.05;8.60;;;;;;;17.84;57.36;100115.13;4486521;31;34099;-63
2022/10/08 08:52:17;;;;;;;15.48;9.65;;;;;;;17.99;55.83;100118.16;4483906;31;33742;-64
2022/10/08 08:54:48;;;;;;;9.52;7.12;;;;;;;18.27;54.64;100112.69;4497005;31;34332;-63
2022/10/08 08:57:39;;;;;;;14.10;7.75;;;;;;;18.05;55.75;100114.00;4494821;31;33754;-63
2022/10/08 09:00:16;;;;;;;12.02;9.35;;;;;;;18.09;55.71;100112.69;4471452;31;33678;-64
2022/10/08 09:03:03;;;;;;;8.40;5.82;;;;;;;18.44;54.69;100111.81;4490845;31;32049;-64
2022/10/08 09:05:37;;;;;;;14.38;8.32;;;;;;;18.38;54.59;100123.28;4485887;31;34483;-64
2022/10/08 09:08:24;;;;;;;10.35;7.65;;;;;;;18.65;53.79;100116.91;4473832;31;31905;-65
2022/10/08 09:10:55;;;;;;;11.15;5.82;;;;;;;18.55;53.93;100114.25;4485210;31;35055;-63
2022/10/08 09:13:29;;;;;;;16.42;8.63;;;;;;;18.24;54.97;100111.13;4489675;31;33163;-64
2022/10/08 09:15:57;;;;;;;11.40;6.37;;;;;;;18.03;55.25;100116.84;4487363;31;33321;-63
2022/10/08 09:18:25;;;;;;;20.88;8.13;;;;;;;18.38;54.84;100117.84;4496710;31;34181;-64
2022/10/08 09:20:52;;;;;;;11.63;6.35;;;;;;;18.58;54.68;100108.53;4492117;31;35052;-65
2022/10/08 09:23:22;;;;;;;11.88;8.93;;;;;;;18.60;54.83;100106.53;4492789;31;32785;-64
2022/10/08 09:26:15;;;;;;;10.65;7.20;;;;;;;18.91;54.15;100114.25;4499368;31;33555;-64
2022/10/08 09:28:44;;;;;;;14.63;9.38;;;;;;;19.29;51.67;100118.37;4490526;31;33299;-64
2022/10/08 09:31:29;;;;;;;11.60;7.72;;;;;;;18.94;52.96;100115.75;4491936;31;35184;-64
2022/10/08 09:34:04;;;;;;;13.50;9.25;;;;;;;18.95;53.77;100112.06;4486245;31;33744;-64
2022/10/08 09:36:35;;;;;;;11.65;8.30;;;;;;;19.49;51.39;100108.09;4483584;31;33702;-64
2022/10/08 09:39:05;;;;;;;12.75;8.68;;;;;;;19.43;51.96;100110.63;4498835;31;33890;-65
2022/10/08 09:41:33;;;;;;;14.87;10.10;;;;;;;19.50;51.85;100108.97;4487158;31;35556;-64
2022/10/08 09:44:20;;;;;;;11.45;6.37;;;;;;;19.58;51.63;100106.25;4493149;31;33875;-64
2022/10/08 09:47:03;;;;;;;14.13;6.78;;;;;;;19.27;51.50;100104.09;4491744;31;34492;-64
2022/10/08 09:49:37;;;;;;;11.60;6.62;;;;;;;19.90;50.26;100110.12;4493790;31;35044;-64
2022/10/08 09:52:21;;;;;;;10.60;7.07;;;;;;;19.64;51.49;100099.34;4486963;31;33747;-63
2022/10/08 09:54:55;;;;;;;11.88;7.65;;;;;;;19.73;50.47;100104.66;4485126;31;33713;-64
2022/10/08 09:57:23;;;;;;;16.27;7.37;;;;;;;19.81;50.73;100100.25;4497675;31;31734;-64
2022/10/08 09:59:59;;;;;;;12.18;7.10;;;;;;;19.63;50.19;100094.91;4479896;31;32726;-64
2022/10/08 10:02:32;;;;;;;7.18;3.95;;;;;;;19.69;50.78;100087.00;4487348;31;34195;-64
2022/10/08 10:05:03;;;;;;;8.15;4.78;;;;;;;19.36;51.19;100087.84;4498128;31;33703;-64
2022/10/08 10:07:37;;;;;;;9.25;5.90;;;;;;;19.70;49.29;100090.56;4493884;31;34297;-64
2022/10/08 10:10:13;;;;;;;12.95;8.32;;;;;;;19.99;48.67;100082.81;4495942;31;32583;-64
2022/10/08 10:12:42;;;;;;;10.70;8.13;;;;;;;20.32;48.93;100077.44;4496681;31;35112;-64
2022/10/08 10:15:14;;;;;;;10.50;6.50;;;;;;;20.16;49.37;100083.69;4492102;31;35091;-64
2022/10/08 10:17:55;;;;;;;11.25;6.70;;;;;;;20.06;49.38;100077.56;4497155;31;33518;-64
2022/10/08 10:20:26;;;;;;;11.52;7.20;;;;;;;20.16;49.60;100066.53;4487549;31;34696;-63
2022/10/08 10:23:00;;;;;;;5.00;3.67;;;;;;;20.13;48.31;100072.31;4471943;31;33580;-65
2022/10/08 10:25:40;;;;;;;8.15;5.93;;;;;;;20.35;47.05;100059.91;4486320;31;34033;-64
2022/10/08 10:28:18;;;;;;;9.80;5.93;;;;;;;20.19;47.89;100061.63;4491777;31;32579;-64
2022/10/08 10:31:04;;;;;;;10.30;7.05;;;;;;;20.52;46.67;100056.22;4486280;31;33785;-64
2022/10/08 10:33:35;;;;;;;11.20;6.05;;;;;;;20.46;46.55;100049.53;4494543;31;34284;-64
2022/10/08 10:36:06;;;;;;;8.13;5.03;;;;;;;20.67;47.23;100051.78;4495110;31;34026;-65
2022/10/08 10:38:40;;;;;;;10.90;6.78;;;;;;;20.92;46.54;100043.53;4493118;31;33176;-65
2022/10/08 10:41:27;;;;;;;10.95;8.02;;;;;;;20.56;47.16;100034.97;4479863;31;32335;-64
2022/10/08 10:44:09;;;;;;;8.52;5.82;;;;;;;20.84;46.44;100041.69;4486860;31;34223;-64
2022/10/08 10:46:50;;;;;;;7.82;5.30;;;;;;;20.90;44.94;100027.41;4487738;31;33896;-65
2022/10/08 10:49:21;;;;;;;6.87;4.57;;;;;;;20.71;45.17;100027.78;4483432;32;34286;-64
2022/10/08 10:52:17;;;;;;;9.13;5.30;;;;;;;21.26;44.63;100028.81;4496891;31;34019;-65
2022/10/08 10:55:16;;;;;;;9.40;5.57;;;;;;;21.02;45.68;100018.84;4491760;31;34291;-65
2022/10/08 10:58:12;;;;;;;6.55;3.40;;;;;;;21.42;44.14;100019.75;4494253;31;34398;-64
2022/10/08 11:00:49;;;;;;;10.85;6.28;;;;;;;21.30;43.50;100011.94;4496080;31;34698;-64
2022/10/08 11:03:33;;;;;;;11.68;5.53;;;;;;;21.61;43.51;100014.69;4492399;31;34994;-64
2022/10/08 11:06:20;;;;;;;9.93;5.55;;;;;;;21.62;43.93;100008.22;4482949;31;35508;-65
2022/10/08 11:09:17;;;;;;;11.00;5.18;;;;;;;21.44;43.31;100002.19;4486612;31;34966;-64
2022/10/08 11:11:49;;;;;;;7.72;4.18;;;;;;;21.77;42.95;100002.84;4490144;31;33252;-65
2022/10/08 11:14:52;;;;;;;8.57;4.62;;;;;;;21.83;41.81;100001.28;4488189;31;33916;-64
2022/10/08 11:17:42;;;;;;;8.63;5.68;;;;;;;21.54;43.38;100001.94;4497163;31;33721;-64
2022/10/08 11:20:51;;;;;;;8.35;5.87;;;;;;;21.53;43.63;100003.00;4491823;31;35035;-64
2022/10/08 11:23:40;;;;;;;7.93;3.87;;;;;;;21.53;43.70;99997.53;4443015;32;31814;-64
2022/10/08 11:26:24;;;;;;;7.40;4.40;;;;;;;21.99;42.05;99994.84;4493096;31;34003;-65
2022/10/08 11:28:51;;;;;;;9.30;5.90;;;;;;;22.09;42.38;99990.84;4485826;31;33730;-65
2022/10/08 11:31:38;;;;;;;6.10;4.15;;;;;;;21.97;42.66;99984.13;4492897;31;37621;-65
2022/10/08 11:34:20;;;;;;;12.65;5.70;;;;;;;22.02;42.60;99989.00;4495018;31;33915;-65
2022/10/08 11:37:31;;;;;;;9.90;5.87;;;;;;;22.15;42.03;99981.09;4496121;31;33630;-65
2022/10/08 11:40:17;;;;;;;7.82;4.15;;;;;;;21.96;41.91;99978.84;4482231;31;33735;-65
2022/10/08 11:42:51;;;;;;;22.45;11.32;;;;;;;21.88;41.69;99974.31;4485406;31;33697;-64
2022/10/08 11:45:22;;;;;;;13.48;7.40;;;;;;;22.05;41.35;99978.63;4485687;31;33545;-65
2022/10/08 11:47:53;;;;;;;12.15;6.03;;;;;;;22.09;41.78;99973.66;4489059;31;32687;-64